< < Back
Terminal Aerodrome Forecast


Current Version              Previous Versions:   1  2  3  4  5  6  7  8  9  

Terminal Aerodrome Forecast

056
FTUS42 KFFC 210500
TAFMCN
TAF
KMCN 210532Z 2106/2206 31003KT P6SM SCT150 BKN250
     FM210800 31003KT 4SM BR SCT007
     FM211400 31004KT P6SM SCT025
     FM211700 30006KT P6SM SCT045
     FM220200 30002KT P6SM SKC=



Latest METAR

972
SAUS80 KWBC 211200
MTRMCN
METAR KMCN 211153Z 28003KT 10SM CLR 22/22 A3011 RMK AO2 SLP193 70002
T02170217 10222 20206 53014


USA.gov is the U.S. government's official web portal to all federal, state and local government web resources and services.